sensor_id;sensor_type;location;lat;lon;timestamp;P1;durP1;ratioP1;P2;durP2;ratioP2
33993;SDS011;20673;48.980;8.138;2022-07-23T00:01:36;7.87;;;6.97;;
33993;SDS011;20673;48.980;8.138;2022-07-23T00:04:02;9.20;;;8.08;;
33993;SDS011;20673;48.980;8.138;2022-07-23T00:06:29;9.23;;;8.28;;
33993;SDS011;20673;48.980;8.138;2022-07-23T00:08:55;8.50;;;7.30;;
33993;SDS011;20673;48.980;8.138;2022-07-23T00:11:21;9.45;;;8.60;;
33993;SDS011;20673;48.980;8.138;2022-07-23T00:13:47;9.63;;;8.73;;
33993;SDS011;20673;48.980;8.138;2022-07-23T00:16:14;10.45;;;8.70;;
33993;SDS011;20673;48.980;8.138;2022-07-23T00:18:40;8.20;;;7.42;;
33993;SDS011;20673;48.980;8.138;2022-07-23T00:21:07;9.20;;;7.60;;
33993;SDS011;20673;48.980;8.138;2022-07-23T00:23:33;8.98;;;7.83;;
33993;SDS011;20673;48.980;8.138;2022-07-23T00:25:59;8.60;;;7.80;;
33993;SDS011;20673;48.980;8.138;2022-07-23T00:28:25;8.53;;;7.70;;
33993;SDS011;20673;48.980;8.138;2022-07-23T00:30:52;8.93;;;8.10;;
33993;SDS011;20673;48.980;8.138;2022-07-23T00:33:18;9.10;;;8.23;;
33993;SDS011;20673;48.980;8.138;2022-07-23T00:35:44;8.68;;;7.90;;
33993;SDS011;20673;48.980;8.138;2022-07-23T00:38:10;8.55;;;7.72;;
33993;SDS011;20673;48.980;8.138;2022-07-23T00:40:37;8.93;;;8.13;;
33993;SDS011;20673;48.980;8.138;2022-07-23T00:43:05;9.78;;;8.20;;
33993;SDS011;20673;48.980;8.138;2022-07-23T00:45:31;8.75;;;7.95;;
33993;SDS011;20673;48.980;8.138;2022-07-23T00:47:58;9.33;;;8.43;;
33993;SDS011;20673;48.980;8.138;2022-07-23T00:50:25;10.00;;;8.95;;
33993;SDS011;20673;48.980;8.138;2022-07-23T00:52:52;11.03;;;8.70;;
33993;SDS011;20673;48.980;8.138;2022-07-23T00:55:19;9.23;;;8.25;;
33993;SDS011;20673;48.980;8.138;2022-07-23T00:57:45;10.90;;;8.45;;
33993;SDS011;20673;48.980;8.138;2022-07-23T01:00:13;9.90;;;8.95;;
33993;SDS011;20673;48.980;8.138;2022-07-23T01:02:41;11.65;;;8.50;;
33993;SDS011;20673;48.980;8.138;2022-07-23T01:05:08;9.90;;;8.90;;
33993;SDS011;20673;48.980;8.138;2022-07-23T01:07:35;10.23;;;8.90;;
33993;SDS011;20673;48.980;8.138;2022-07-23T01:10:02;9.05;;;8.15;;
33993;SDS011;20673;48.980;8.138;2022-07-23T01:12:30;9.10;;;8.05;;
33993;SDS011;20673;48.980;8.138;2022-07-23T01:14:57;8.45;;;7.65;;
33993;SDS011;20673;48.980;8.138;2022-07-23T01:17:25;9.08;;;7.90;;
33993;SDS011;20673;48.980;8.138;2022-07-23T01:19:52;9.65;;;8.75;;
33993;SDS011;20673;48.980;8.138;2022-07-23T01:22:19;9.50;;;8.30;;
33993;SDS011;20673;48.980;8.138;2022-07-23T01:24:46;9.88;;;8.85;;
33993;SDS011;20673;48.980;8.138;2022-07-23T01:27:12;8.95;;;8.05;;
33993;SDS011;20673;48.980;8.138;2022-07-23T01:29:39;10.03;;;9.00;;
33993;SDS011;20673;48.980;8.138;2022-07-23T01:32:05;11.83;;;8.90;;
33993;SDS011;20673;48.980;8.138;2022-07-23T01:34:32;9.20;;;8.30;;
33993;SDS011;20673;48.980;8.138;2022-07-23T01:36:58;9.70;;;8.75;;
33993;SDS011;20673;48.980;8.138;2022-07-23T01:39:24;11.00;;;8.93;;
33993;SDS011;20673;48.980;8.138;2022-07-23T01:41:50;8.73;;;7.87;;
33993;SDS011;20673;48.980;8.138;2022-07-23T01:44:16;10.05;;;8.23;;
33993;SDS011;20673;48.980;8.138;2022-07-23T01:46:42;8.60;;;7.72;;
33993;SDS011;20673;48.980;8.138;2022-07-23T01:49:09;9.58;;;8.65;;
33993;SDS011;20673;48.980;8.138;2022-07-23T01:51:35;9.23;;;8.33;;
33993;SDS011;20673;48.980;8.138;2022-07-23T01:54:01;9.18;;;8.15;;
33993;SDS011;20673;48.980;8.138;2022-07-23T01:56:28;9.48;;;8.38;;
33993;SDS011;20673;48.980;8.138;2022-07-23T01:58:54;9.98;;;8.33;;
33993;SDS011;20673;48.980;8.138;2022-07-23T02:01:20;7.92;;;7.28;;
33993;SDS011;20673;48.980;8.138;2022-07-23T02:03:46;8.95;;;8.03;;
33993;SDS011;20673;48.980;8.138;2022-07-23T02:06:12;9.00;;;8.10;;
33993;SDS011;20673;48.980;8.138;2022-07-23T02:08:38;8.70;;;7.70;;
33993;SDS011;20673;48.980;8.138;2022-07-23T02:11:05;9.85;;;7.85;;
33993;SDS011;20673;48.980;8.138;2022-07-23T02:13:31;9.25;;;8.35;;
33993;SDS011;20673;48.980;8.138;2022-07-23T02:15:57;9.00;;;8.15;;
33993;SDS011;20673;48.980;8.138;2022-07-23T02:18:24;8.73;;;7.92;;
33993;SDS011;20673;48.980;8.138;2022-07-23T02:20:50;9.43;;;8.15;;
33993;SDS011;20673;48.980;8.138;2022-07-23T02:23:16;8.80;;;7.75;;
33993;SDS011;20673;48.980;8.138;2022-07-23T02:25:42;8.60;;;7.78;;
33993;SDS011;20673;48.980;8.138;2022-07-23T02:28:08;9.85;;;8.65;;
33993;SDS011;20673;48.980;8.138;2022-07-23T02:30:34;9.90;;;8.68;;
33993;SDS011;20673;48.980;8.138;2022-07-23T02:33:01;9.40;;;8.50;;
33993;SDS011;20673;48.980;8.138;2022-07-23T02:35:27;9.40;;;8.55;;
33993;SDS011;20673;48.980;8.138;2022-07-23T02:37:54;9.88;;;8.78;;
33993;SDS011;20673;48.980;8.138;2022-07-23T02:40:20;8.85;;;8.05;;
33993;SDS011;20673;48.980;8.138;2022-07-23T02:42:46;10.30;;;9.25;;
33993;SDS011;20673;48.980;8.138;2022-07-23T02:45:13;9.33;;;8.25;;
33993;SDS011;20673;48.980;8.138;2022-07-23T02:47:39;9.87;;;8.93;;
33993;SDS011;20673;48.980;8.138;2022-07-23T02:50:06;9.93;;;8.75;;
33993;SDS011;20673;48.980;8.138;2022-07-23T02:52:33;10.48;;;9.38;;
33993;SDS011;20673;48.980;8.138;2022-07-23T02:55:00;10.30;;;9.28;;
33993;SDS011;20673;48.980;8.138;2022-07-23T02:57:26;12.97;;;10.27;;
33993;SDS011;20673;48.980;8.138;2022-07-23T02:59:52;11.93;;;9.90;;
33993;SDS011;20673;48.980;8.138;2022-07-23T03:02:18;11.05;;;9.53;;
33993;SDS011;20673;48.980;8.138;2022-07-23T03:04:45;10.80;;;9.70;;
33993;SDS011;20673;48.980;8.138;2022-07-23T03:07:11;15.60;;;9.27;;
33993;SDS011;20673;48.980;8.138;2022-07-23T03:09:38;12.70;;;9.63;;
33993;SDS011;20673;48.980;8.138;2022-07-23T03:12:04;10.05;;;9.20;;
33993;SDS011;20673;48.980;8.138;2022-07-23T03:14:31;9.83;;;8.77;;
33993;SDS011;20673;48.980;8.138;2022-07-23T03:16:57;9.38;;;8.38;;
33993;SDS011;20673;48.980;8.138;2022-07-23T03:19:25;9.90;;;8.53;;
33993;SDS011;20673;48.980;8.138;2022-07-23T03:21:52;9.58;;;8.65;;
33993;SDS011;20673;48.980;8.138;2022-07-23T03:24:18;9.15;;;8.23;;
33993;SDS011;20673;48.980;8.138;2022-07-23T03:26:44;8.60;;;7.80;;
33993;SDS011;20673;48.980;8.138;2022-07-23T03:29:10;8.75;;;7.95;;
33993;SDS011;20673;48.980;8.138;2022-07-23T03:31:37;10.38;;;8.08;;
33993;SDS011;20673;48.980;8.138;2022-07-23T03:34:03;8.63;;;7.67;;
33993;SDS011;20673;48.980;8.138;2022-07-23T03:36:29;7.97;;;7.28;;
33993;SDS011;20673;48.980;8.138;2022-07-23T03:38:56;8.55;;;7.30;;
33993;SDS011;20673;48.980;8.138;2022-07-23T03:41:22;10.13;;;7.60;;
33993;SDS011;20673;48.980;8.138;2022-07-23T03:43:48;9.88;;;7.30;;
33993;SDS011;20673;48.980;8.138;2022-07-23T03:46:14;9.73;;;8.13;;
33993;SDS011;20673;48.980;8.138;2022-07-23T03:48:40;8.25;;;7.20;;
33993;SDS011;20673;48.980;8.138;2022-07-23T03:51:06;8.98;;;8.08;;
33993;SDS011;20673;48.980;8.138;2022-07-23T03:53:33;8.58;;;7.67;;
33993;SDS011;20673;48.980;8.138;2022-07-23T03:55:59;9.55;;;7.05;;
33993;SDS011;20673;48.980;8.138;2022-07-23T03:58:25;8.05;;;7.20;;
33993;SDS011;20673;48.980;8.138;2022-07-23T04:00:51;8.70;;;7.80;;
33993;SDS011;20673;48.980;8.138;2022-07-23T04:03:17;7.80;;;7.10;;
33993;SDS011;20673;48.980;8.138;2022-07-23T04:05:43;7.97;;;7.00;;
33993;SDS011;20673;48.980;8.138;2022-07-23T04:08:10;11.88;;;7.90;;
33993;SDS011;20673;48.980;8.138;2022-07-23T04:10:36;9.05;;;8.15;;
33993;SDS011;20673;48.980;8.138;2022-07-23T04:13:02;8.80;;;7.97;;
33993;SDS011;20673;48.980;8.138;2022-07-23T04:15:28;9.80;;;8.10;;
33993;SDS011;20673;48.980;8.138;2022-07-23T04:17:54;8.98;;;8.18;;
33993;SDS011;20673;48.980;8.138;2022-07-23T04:20:20;10.98;;;8.60;;
33993;SDS011;20673;48.980;8.138;2022-07-23T04:22:46;9.98;;;8.50;;
33993;SDS011;20673;48.980;8.138;2022-07-23T04:25:12;8.95;;;8.05;;
33993;SDS011;20673;48.980;8.138;2022-07-23T04:27:40;10.70;;;8.70;;
33993;SDS011;20673;48.980;8.138;2022-07-23T04:30:07;12.60;;;9.27;;
33993;SDS011;20673;48.980;8.138;2022-07-23T04:32:34;11.12;;;9.00;;
33993;SDS011;20673;48.980;8.138;2022-07-23T04:35:00;10.13;;;9.10;;
33993;SDS011;20673;48.980;8.138;2022-07-23T04:37:27;10.08;;;9.08;;
33993;SDS011;20673;48.980;8.138;2022-07-23T04:39:53;9.75;;;8.85;;
33993;SDS011;20673;48.980;8.138;2022-07-23T04:42:19;9.15;;;8.25;;
33993;SDS011;20673;48.980;8.138;2022-07-23T04:44:46;9.60;;;8.60;;
33993;SDS011;20673;48.980;8.138;2022-07-23T04:47:12;12.25;;;9.68;;
33993;SDS011;20673;48.980;8.138;2022-07-23T04:49:38;11.57;;;10.38;;
33993;SDS011;20673;48.980;8.138;2022-07-23T04:52:04;9.47;;;8.63;;
33993;SDS011;20673;48.980;8.138;2022-07-23T04:54:30;10.27;;;9.30;;
33993;SDS011;20673;48.980;8.138;2022-07-23T04:56:56;10.77;;;9.47;;
33993;SDS011;20673;48.980;8.138;2022-07-23T04:59:22;12.10;;;9.77;;
33993;SDS011;20673;48.980;8.138;2022-07-23T05:01:49;11.30;;;9.23;;
33993;SDS011;20673;48.980;8.138;2022-07-23T05:04:15;11.13;;;9.33;;
33993;SDS011;20673;48.980;8.138;2022-07-23T05:06:41;9.83;;;8.87;;
33993;SDS011;20673;48.980;8.138;2022-07-23T05:09:07;10.33;;;9.33;;
33993;SDS011;20673;48.980;8.138;2022-07-23T05:11:33;11.57;;;10.13;;
33993;SDS011;20673;48.980;8.138;2022-07-23T05:14:00;10.47;;;9.20;;
33993;SDS011;20673;48.980;8.138;2022-07-23T05:16:26;10.33;;;9.33;;
33993;SDS011;20673;48.980;8.138;2022-07-23T05:18:52;11.18;;;9.50;;
33993;SDS011;20673;48.980;8.138;2022-07-23T05:21:19;10.03;;;9.03;;
33993;SDS011;20673;48.980;8.138;2022-07-23T05:23:45;11.97;;;9.50;;
33993;SDS011;20673;48.980;8.138;2022-07-23T05:26:11;11.15;;;9.90;;
33993;SDS011;20673;48.980;8.138;2022-07-23T05:28:37;10.25;;;9.25;;
33993;SDS011;20673;48.980;8.138;2022-07-23T05:31:04;10.45;;;9.38;;
33993;SDS011;20673;48.980;8.138;2022-07-23T05:33:30;10.58;;;9.35;;
33993;SDS011;20673;48.980;8.138;2022-07-23T05:36:02;10.32;;;9.43;;
33993;SDS011;20673;48.980;8.138;2022-07-23T05:38:31;10.38;;;9.08;;
33993;SDS011;20673;48.980;8.138;2022-07-23T05:40:58;11.08;;;9.68;;
33993;SDS011;20673;48.980;8.138;2022-07-23T05:43:24;10.25;;;9.15;;
33993;SDS011;20673;48.980;8.138;2022-07-23T05:45:51;10.70;;;9.70;;
33993;SDS011;20673;48.980;8.138;2022-07-23T05:48:17;10.93;;;9.93;;
33993;SDS011;20673;48.980;8.138;2022-07-23T05:50:43;10.32;;;9.43;;
33993;SDS011;20673;48.980;8.138;2022-07-23T05:53:10;11.03;;;9.93;;
33993;SDS011;20673;48.980;8.138;2022-07-23T05:55:36;12.30;;;10.57;;
33993;SDS011;20673;48.980;8.138;2022-07-23T05:58:02;10.90;;;9.90;;
33993;SDS011;20673;48.980;8.138;2022-07-23T06:00:28;10.60;;;9.60;;
33993;SDS011;20673;48.980;8.138;2022-07-23T06:02:55;10.30;;;9.20;;
33993;SDS011;20673;48.980;8.138;2022-07-23T06:05:22;11.55;;;10.23;;
33993;SDS011;20673;48.980;8.138;2022-07-23T06:07:48;10.28;;;9.28;;
33993;SDS011;20673;48.980;8.138;2022-07-23T06:10:15;11.63;;;10.40;;
33993;SDS011;20673;48.980;8.138;2022-07-23T06:12:41;11.12;;;9.68;;
33993;SDS011;20673;48.980;8.138;2022-07-23T06:15:08;9.88;;;8.90;;
33993;SDS011;20673;48.980;8.138;2022-07-23T06:17:35;10.25;;;9.18;;
33993;SDS011;20673;48.980;8.138;2022-07-23T06:20:04;10.30;;;9.30;;
33993;SDS011;20673;48.980;8.138;2022-07-23T06:22:32;10.53;;;9.38;;
33993;SDS011;20673;48.980;8.138;2022-07-23T06:24:58;11.15;;;10.05;;
33993;SDS011;20673;48.980;8.138;2022-07-23T06:27:25;10.03;;;9.13;;
33993;SDS011;20673;48.980;8.138;2022-07-23T06:29:51;10.95;;;9.85;;
33993;SDS011;20673;48.980;8.138;2022-07-23T06:32:17;10.48;;;9.48;;
33993;SDS011;20673;48.980;8.138;2022-07-23T06:34:43;10.53;;;9.33;;
33993;SDS011;20673;48.980;8.138;2022-07-23T06:37:09;10.85;;;9.65;;
33993;SDS011;20673;48.980;8.138;2022-07-23T06:39:36;9.88;;;8.90;;
33993;SDS011;20673;48.980;8.138;2022-07-23T06:42:02;12.00;;;9.60;;
33993;SDS011;20673;48.980;8.138;2022-07-23T06:44:29;9.28;;;8.25;;
33993;SDS011;20673;48.980;8.138;2022-07-23T06:46:55;9.83;;;8.83;;
33993;SDS011;20673;48.980;8.138;2022-07-23T06:49:21;9.88;;;8.70;;
33993;SDS011;20673;48.980;8.138;2022-07-23T06:51:47;10.00;;;8.85;;
33993;SDS011;20673;48.980;8.138;2022-07-23T06:54:14;10.03;;;8.63;;
33993;SDS011;20673;48.980;8.138;2022-07-23T06:56:40;9.00;;;8.10;;
33993;SDS011;20673;48.980;8.138;2022-07-23T06:59:08;11.12;;;8.33;;
33993;SDS011;20673;48.980;8.138;2022-07-23T07:01:34;9.60;;;8.58;;
33993;SDS011;20673;48.980;8.138;2022-07-23T07:04:00;9.43;;;8.38;;
33993;SDS011;20673;48.980;8.138;2022-07-23T07:06:26;8.70;;;7.90;;
33993;SDS011;20673;48.980;8.138;2022-07-23T07:08:53;9.48;;;8.43;;
33993;SDS011;20673;48.980;8.138;2022-07-23T07:11:20;11.90;;;8.58;;
33993;SDS011;20673;48.980;8.138;2022-07-23T07:13:46;8.68;;;7.80;;
33993;SDS011;20673;48.980;8.138;2022-07-23T07:16:12;9.53;;;8.10;;
33993;SDS011;20673;48.980;8.138;2022-07-23T07:18:38;10.98;;;8.60;;
33993;SDS011;20673;48.980;8.138;2022-07-23T07:21:05;10.80;;;8.93;;
33993;SDS011;20673;48.980;8.138;2022-07-23T07:23:31;10.30;;;8.08;;
33993;SDS011;20673;48.980;8.138;2022-07-23T07:25:57;8.85;;;7.95;;
33993;SDS011;20673;48.980;8.138;2022-07-23T07:28:23;10.32;;;8.53;;
33993;SDS011;20673;48.980;8.138;2022-07-23T07:30:50;10.43;;;7.75;;
33993;SDS011;20673;48.980;8.138;2022-07-23T07:33:16;9.60;;;7.95;;
33993;SDS011;20673;48.980;8.138;2022-07-23T07:35:42;7.97;;;7.17;;
33993;SDS011;20673;48.980;8.138;2022-07-23T07:38:09;8.98;;;8.03;;
33993;SDS011;20673;48.980;8.138;2022-07-23T07:40:35;8.15;;;7.50;;
33993;SDS011;20673;48.980;8.138;2022-07-23T07:43:01;9.08;;;8.18;;
33993;SDS011;20673;48.980;8.138;2022-07-23T07:45:28;8.93;;;7.40;;
33993;SDS011;20673;48.980;8.138;2022-07-23T07:47:55;8.45;;;7.42;;
33993;SDS011;20673;48.980;8.138;2022-07-23T07:50:21;10.23;;;8.63;;
33993;SDS011;20673;48.980;8.138;2022-07-23T07:52:48;9.30;;;8.05;;
33993;SDS011;20673;48.980;8.138;2022-07-23T07:55:14;8.93;;;8.03;;
33993;SDS011;20673;48.980;8.138;2022-07-23T07:57:41;9.25;;;7.72;;
33993;SDS011;20673;48.980;8.138;2022-07-23T08:00:08;8.43;;;7.67;;
33993;SDS011;20673;48.980;8.138;2022-07-23T08:02:43;8.65;;;7.75;;
33993;SDS011;20673;48.980;8.138;2022-07-23T08:05:24;8.70;;;7.90;;
33993;SDS011;20673;48.980;8.138;2022-07-23T08:07:49;8.88;;;7.85;;
33993;SDS011;20673;48.980;8.138;2022-07-23T08:10:16;8.95;;;7.42;;
33993;SDS011;20673;48.980;8.138;2022-07-23T08:12:45;10.25;;;7.80;;
33993;SDS011;20673;48.980;8.138;2022-07-23T08:15:14;8.58;;;7.65;;
33993;SDS011;20673;48.980;8.138;2022-07-23T08:17:43;9.58;;;8.58;;
33993;SDS011;20673;48.980;8.138;2022-07-23T08:20:12;8.05;;;7.25;;
33993;SDS011;20673;48.980;8.138;2022-07-23T08:22:52;8.68;;;7.40;;
33993;SDS011;20673;48.980;8.138;2022-07-23T08:25:16;7.90;;;7.10;;
33993;SDS011;20673;48.980;8.138;2022-07-23T08:27:49;7.78;;;7.05;;
33993;SDS011;20673;48.980;8.138;2022-07-23T08:30:17;9.13;;;7.75;;
33993;SDS011;20673;48.980;8.138;2022-07-23T08:32:47;9.25;;;7.50;;
33993;SDS011;20673;48.980;8.138;2022-07-23T08:35:39;8.00;;;7.20;;
33993;SDS011;20673;48.980;8.138;2022-07-23T08:38:07;8.68;;;7.87;;
33993;SDS011;20673;48.980;8.138;2022-07-23T08:40:40;8.85;;;8.05;;
33993;SDS011;20673;48.980;8.138;2022-07-23T08:43:07;7.40;;;6.73;;
33993;SDS011;20673;48.980;8.138;2022-07-23T08:45:36;8.23;;;7.35;;
33993;SDS011;20673;48.980;8.138;2022-07-23T08:48:22;8.93;;;7.43;;
33993;SDS011;20673;48.980;8.138;2022-07-23T08:50:53;8.25;;;6.85;;
33993;SDS011;20673;48.980;8.138;2022-07-23T08:53:25;8.05;;;7.35;;
33993;SDS011;20673;48.980;8.138;2022-07-23T08:55:54;7.83;;;6.58;;
33993;SDS011;20673;48.980;8.138;2022-07-23T08:58:23;8.63;;;7.42;;
33993;SDS011;20673;48.980;8.138;2022-07-23T09:00:51;7.83;;;7.12;;
33993;SDS011;20673;48.980;8.138;2022-07-23T09:03:21;7.87;;;7.10;;
33993;SDS011;20673;48.980;8.138;2022-07-23T09:05:51;11.22;;;8.23;;
33993;SDS011;20673;48.980;8.138;2022-07-23T09:08:19;9.03;;;7.05;;
33993;SDS011;20673;48.980;8.138;2022-07-23T09:10:55;8.13;;;6.83;;
33993;SDS011;20673;48.980;8.138;2022-07-23T09:13:35;7.58;;;6.97;;
33993;SDS011;20673;48.980;8.138;2022-07-23T09:16:19;8.53;;;6.70;;
33993;SDS011;20673;48.980;8.138;2022-07-23T09:18:56;7.00;;;6.10;;
33993;SDS011;20673;48.980;8.138;2022-07-23T09:21:31;8.53;;;6.83;;
33993;SDS011;20673;48.980;8.138;2022-07-23T09:24:02;7.30;;;6.60;;
33993;SDS011;20673;48.980;8.138;2022-07-23T09:26:34;8.13;;;6.62;;
33993;SDS011;20673;48.980;8.138;2022-07-23T09:31:55;7.97;;;7.22;;
33993;SDS011;20673;48.980;8.138;2022-07-23T09:34:25;7.30;;;6.67;;
33993;SDS011;20673;48.980;8.138;2022-07-23T09:37:10;7.05;;;6.45;;
33993;SDS011;20673;48.980;8.138;2022-07-23T09:39:39;10.38;;;7.00;;
33993;SDS011;20673;48.980;8.138;2022-07-23T09:44:47;8.40;;;7.60;;
33993;SDS011;20673;48.980;8.138;2022-07-23T09:47:16;8.28;;;7.55;;
33993;SDS011;20673;48.980;8.138;2022-07-23T09:52:48;8.18;;;7.37;;
33993;SDS011;20673;48.980;8.138;2022-07-23T09:55:14;9.38;;;7.35;;
33993;SDS011;20673;48.980;8.138;2022-07-23T09:57:44;8.05;;;7.40;;
33993;SDS011;20673;48.980;8.138;2022-07-23T10:00:14;8.23;;;7.40;;
33993;SDS011;20673;48.980;8.138;2022-07-23T10:02:41;9.30;;;7.45;;
33993;SDS011;20673;48.980;8.138;2022-07-23T10:05:09;8.03;;;7.22;;
33993;SDS011;20673;48.980;8.138;2022-07-23T10:07:37;8.18;;;7.28;;
33993;SDS011;20673;48.980;8.138;2022-07-23T10:10:05;8.38;;;7.47;;
33993;SDS011;20673;48.980;8.138;2022-07-23T10:12:33;11.05;;;8.30;;
33993;SDS011;20673;48.980;8.138;2022-07-23T10:15:18;8.98;;;7.85;;
33993;SDS011;20673;48.980;8.138;2022-07-23T10:17:44;8.83;;;7.42;;
33993;SDS011;20673;48.980;8.138;2022-07-23T10:20:10;7.58;;;6.87;;
33993;SDS011;20673;48.980;8.138;2022-07-23T10:22:38;10.65;;;7.78;;
33993;SDS011;20673;48.980;8.138;2022-07-23T10:25:26;7.80;;;7.08;;
33993;SDS011;20673;48.980;8.138;2022-07-23T10:39:26;8.08;;;7.25;;
33993;SDS011;20673;48.980;8.138;2022-07-23T10:44:40;8.38;;;7.58;;
33993;SDS011;20673;48.980;8.138;2022-07-23T10:47:13;9.45;;;7.50;;
33993;SDS011;20673;48.980;8.138;2022-07-23T10:50:20;8.78;;;7.08;;
33993;SDS011;20673;48.980;8.138;2022-07-23T10:55:42;7.85;;;7.20;;
33993;SDS011;20673;48.980;8.138;2022-07-23T10:58:16;7.73;;;6.70;;
33993;SDS011;20673;48.980;8.138;2022-07-23T11:00:46;7.50;;;6.87;;
33993;SDS011;20673;48.980;8.138;2022-07-23T11:03:32;7.80;;;7.10;;
33993;SDS011;20673;48.980;8.138;2022-07-23T11:06:04;8.63;;;6.58;;
33993;SDS011;20673;48.980;8.138;2022-07-23T11:08:31;7.58;;;6.65;;
33993;SDS011;20673;48.980;8.138;2022-07-23T11:16:06;7.67;;;6.47;;
33993;SDS011;20673;48.980;8.138;2022-07-23T11:32:02;7.20;;;6.60;;
33993;SDS011;20673;48.980;8.138;2022-07-23T11:34:39;7.60;;;6.80;;
33993;SDS011;20673;48.980;8.138;2022-07-23T11:39:36;7.10;;;5.78;;
33993;SDS011;20673;48.980;8.138;2022-07-23T11:42:04;7.67;;;7.05;;
33993;SDS011;20673;48.980;8.138;2022-07-23T11:44:37;8.35;;;6.45;;
33993;SDS011;20673;48.980;8.138;2022-07-23T11:47:09;7.22;;;6.53;;
33993;SDS011;20673;48.980;8.138;2022-07-23T11:49:35;7.70;;;6.95;;
33993;SDS011;20673;48.980;8.138;2022-07-23T11:52:12;7.90;;;7.20;;
33993;SDS011;20673;48.980;8.138;2022-07-23T11:54:46;7.80;;;6.62;;
33993;SDS011;20673;48.980;8.138;2022-07-23T11:57:21;7.87;;;7.15;;
33993;SDS011;20673;48.980;8.138;2022-07-23T11:59:54;7.67;;;6.97;;
33993;SDS011;20673;48.980;8.138;2022-07-23T12:02:24;7.22;;;6.55;;
33993;SDS011;20673;48.980;8.138;2022-07-23T12:04:51;7.70;;;7.08;;
33993;SDS011;20673;48.980;8.138;2022-07-23T12:12:47;8.00;;;7.22;;
33993;SDS011;20673;48.980;8.138;2022-07-23T12:15:19;7.85;;;7.05;;
33993;SDS011;20673;48.980;8.138;2022-07-23T12:17:57;7.70;;;6.95;;
33993;SDS011;20673;48.980;8.138;2022-07-23T12:20:26;7.70;;;6.92;;
33993;SDS011;20673;48.980;8.138;2022-07-23T12:23:03;7.70;;;6.87;;
33993;SDS011;20673;48.980;8.138;2022-07-23T12:25:36;8.00;;;7.28;;
33993;SDS011;20673;48.980;8.138;2022-07-23T12:28:12;7.92;;;7.28;;
33993;SDS011;20673;48.980;8.138;2022-07-23T12:33:23;9.07;;;7.80;;
33993;SDS011;20673;48.980;8.138;2022-07-23T12:35:55;7.53;;;6.78;;
33993;SDS011;20673;48.980;8.138;2022-07-23T12:38:25;7.83;;;6.67;;
33993;SDS011;20673;48.980;8.138;2022-07-23T12:40:56;8.58;;;6.55;;
33993;SDS011;20673;48.980;8.138;2022-07-23T12:43:42;8.48;;;7.78;;
33993;SDS011;20673;48.980;8.138;2022-07-23T12:46:13;8.20;;;7.30;;
33993;SDS011;20673;48.980;8.138;2022-07-23T12:51:20;7.55;;;6.85;;
33993;SDS011;20673;48.980;8.138;2022-07-23T12:53:57;7.33;;;6.55;;
33993;SDS011;20673;48.980;8.138;2022-07-23T12:56:27;7.37;;;6.63;;
33993;SDS011;20673;48.980;8.138;2022-07-23T12:58:58;7.13;;;6.53;;
33993;SDS011;20673;48.980;8.138;2022-07-23T13:01:39;7.55;;;6.85;;
33993;SDS011;20673;48.980;8.138;2022-07-23T13:04:11;7.80;;;7.00;;
33993;SDS011;20673;48.980;8.138;2022-07-23T13:06:49;7.05;;;6.37;;
33993;SDS011;20673;48.980;8.138;2022-07-23T13:09:19;8.05;;;6.60;;
33993;SDS011;20673;48.980;8.138;2022-07-23T13:11:50;6.47;;;5.97;;
33993;SDS011;20673;48.980;8.138;2022-07-23T13:14:18;7.70;;;7.00;;
33993;SDS011;20673;48.980;8.138;2022-07-23T13:16:46;7.17;;;6.47;;
33993;SDS011;20673;48.980;8.138;2022-07-23T13:19:14;7.40;;;6.65;;
33993;SDS011;20673;48.980;8.138;2022-07-23T13:21:41;7.45;;;6.85;;
33993;SDS011;20673;48.980;8.138;2022-07-23T13:24:12;7.42;;;6.75;;
33993;SDS011;20673;48.980;8.138;2022-07-23T13:26:38;7.35;;;6.67;;
33993;SDS011;20673;48.980;8.138;2022-07-23T13:29:05;6.65;;;6.05;;
33993;SDS011;20673;48.980;8.138;2022-07-23T13:31:32;7.80;;;6.97;;
33993;SDS011;20673;48.980;8.138;2022-07-23T13:33:58;6.87;;;6.33;;
33993;SDS011;20673;48.980;8.138;2022-07-23T13:36:25;7.72;;;6.87;;
33993;SDS011;20673;48.980;8.138;2022-07-23T13:38:51;7.30;;;6.70;;
33993;SDS011;20673;48.980;8.138;2022-07-23T13:41:18;7.35;;;6.75;;
33993;SDS011;20673;48.980;8.138;2022-07-23T13:43:44;9.75;;;7.05;;
33993;SDS011;20673;48.980;8.138;2022-07-23T13:46:11;7.10;;;6.50;;
33993;SDS011;20673;48.980;8.138;2022-07-23T13:48:37;7.58;;;6.83;;
33993;SDS011;20673;48.980;8.138;2022-07-23T13:51:03;8.03;;;7.37;;
33993;SDS011;20673;48.980;8.138;2022-07-23T13:53:30;7.25;;;6.62;;
33993;SDS011;20673;48.980;8.138;2022-07-23T13:55:56;8.08;;;6.90;;
33993;SDS011;20673;48.980;8.138;2022-07-23T13:58:22;7.33;;;6.62;;
33993;SDS011;20673;48.980;8.138;2022-07-23T14:00:50;8.00;;;7.30;;
33993;SDS011;20673;48.980;8.138;2022-07-23T14:03:19;7.85;;;6.75;;
33993;SDS011;20673;48.980;8.138;2022-07-23T14:05:51;8.05;;;7.45;;
33993;SDS011;20673;48.980;8.138;2022-07-23T14:08:18;7.55;;;6.85;;
33993;SDS011;20673;48.980;8.138;2022-07-23T14:10:45;8.10;;;7.33;;
33993;SDS011;20673;48.980;8.138;2022-07-23T14:13:11;7.90;;;7.20;;
33993;SDS011;20673;48.980;8.138;2022-07-23T14:15:37;8.15;;;7.33;;
33993;SDS011;20673;48.980;8.138;2022-07-23T14:18:05;8.08;;;7.37;;
33993;SDS011;20673;48.980;8.138;2022-07-23T14:20:32;8.80;;;7.90;;
33993;SDS011;20673;48.980;8.138;2022-07-23T14:22:59;8.03;;;7.17;;
33993;SDS011;20673;48.980;8.138;2022-07-23T14:25:26;8.25;;;7.45;;
33993;SDS011;20673;48.980;8.138;2022-07-23T14:27:52;8.55;;;7.72;;
33993;SDS011;20673;48.980;8.138;2022-07-23T14:30:19;10.72;;;7.58;;
33993;SDS011;20673;48.980;8.138;2022-07-23T14:32:48;8.15;;;7.45;;
33993;SDS011;20673;48.980;8.138;2022-07-23T14:35:14;7.95;;;7.25;;
33993;SDS011;20673;48.980;8.138;2022-07-23T14:37:40;7.78;;;6.95;;
33993;SDS011;20673;48.980;8.138;2022-07-23T14:40:07;10.03;;;7.42;;
33993;SDS011;20673;48.980;8.138;2022-07-23T14:42:33;8.33;;;7.53;;
33993;SDS011;20673;48.980;8.138;2022-07-23T14:45:00;8.13;;;7.35;;
33993;SDS011;20673;48.980;8.138;2022-07-23T14:47:26;9.30;;;7.28;;
33993;SDS011;20673;48.980;8.138;2022-07-23T14:49:52;7.80;;;7.15;;
33993;SDS011;20673;48.980;8.138;2022-07-23T14:52:18;8.75;;;7.12;;
33993;SDS011;20673;48.980;8.138;2022-07-23T14:54:44;7.80;;;7.00;;
33993;SDS011;20673;48.980;8.138;2022-07-23T14:57:12;7.87;;;7.17;;
33993;SDS011;20673;48.980;8.138;2022-07-23T14:59:39;7.70;;;6.60;;
33993;SDS011;20673;48.980;8.138;2022-07-23T15:02:07;7.53;;;6.75;;
33993;SDS011;20673;48.980;8.138;2022-07-23T15:04:33;8.08;;;6.78;;
33993;SDS011;20673;48.980;8.138;2022-07-23T15:06:59;7.62;;;6.72;;
33993;SDS011;20673;48.980;8.138;2022-07-23T15:09:26;9.58;;;7.90;;
33993;SDS011;20673;48.980;8.138;2022-07-23T15:11:52;8.65;;;7.85;;
33993;SDS011;20673;48.980;8.138;2022-07-23T15:14:18;7.67;;;6.85;;
33993;SDS011;20673;48.980;8.138;2022-07-23T15:16:44;7.05;;;6.30;;
33993;SDS011;20673;48.980;8.138;2022-07-23T15:19:11;7.78;;;7.00;;
33993;SDS011;20673;48.980;8.138;2022-07-23T15:21:37;7.67;;;7.08;;
33993;SDS011;20673;48.980;8.138;2022-07-23T15:24:03;7.67;;;7.00;;
33993;SDS011;20673;48.980;8.138;2022-07-23T15:26:30;7.53;;;6.92;;
33993;SDS011;20673;48.980;8.138;2022-07-23T15:28:56;7.85;;;7.08;;
33993;SDS011;20673;48.980;8.138;2022-07-23T15:31:24;7.65;;;6.95;;
33993;SDS011;20673;48.980;8.138;2022-07-23T15:33:51;7.67;;;6.97;;
33993;SDS011;20673;48.980;8.138;2022-07-23T15:36:18;10.45;;;7.15;;
33993;SDS011;20673;48.980;8.138;2022-07-23T15:38:45;8.25;;;7.47;;
33993;SDS011;20673;48.980;8.138;2022-07-23T15:41:12;10.53;;;9.63;;
33993;SDS011;20673;48.980;8.138;2022-07-23T15:43:39;8.65;;;7.70;;
33993;SDS011;20673;48.980;8.138;2022-07-23T15:46:06;9.15;;;8.33;;